Terminal Aerodrome Forecast
Issued by NWS Blacksburg, VA

Current Version | Previous Version | Text Only | Print | Product List | Glossary On
Versions: 1 2 3 4 5 6 7 8 9 10 11 12 13 14 15 16 17 18 19 20 21 22 23 24 25 26 27 28 29 30 31 32 33 34
000
FTUS41 KRNK 261731
TAFLYH
TAF
KLYH 261731Z 2618/2718 19004KT P6SM SCT150
      TEMPO 2623/2703 4SM -SHRA OVC020
     FM270300 VRB03KT 5SM -SHRA OVC025
     FM270600 00000KT 3SM -SHRA BR OVC008
     FM271300 31004KT P6SM OVC025
     FM271700 31006KT P6SM BKN040=

USA.gov is the U.S. government's official web portal to all federal, state and local government web resources and services.